createdAt,value
2018-08-17T00:00:40.322Z,17.80
2018-08-17T00:03:08.856Z,17.97
2018-08-17T00:05:37.725Z,19.03
2018-08-17T00:08:06.672Z,17.60
2018-08-17T00:10:35.175Z,18.73
2018-08-17T00:13:03.744Z,18.60
2018-08-17T00:15:32.299Z,18.53
2018-08-17T00:18:00.839Z,18.83
2018-08-17T00:20:29.311Z,17.43
2018-08-17T00:22:57.820Z,19.07
2018-08-17T00:25:26.307Z,18.90
2018-08-17T00:27:54.799Z,17.63
2018-08-17T00:30:23.306Z,17.83
2018-08-17T00:32:52.164Z,18.63
2018-08-17T00:35:20.715Z,17.03
2018-08-17T00:37:49.226Z,18.23
2018-08-17T00:40:17.771Z,15.47
2018-08-17T00:42:46.285Z,16.07
2018-08-17T00:45:14.763Z,15.20
2018-08-17T00:47:43.259Z,16.07
2018-08-17T00:50:11.771Z,16.97
2018-08-17T00:52:40.303Z,17.37
2018-08-17T00:55:09.130Z,16.43
2018-08-17T00:57:37.594Z,15.70
2018-08-17T01:00:06.409Z,15.13
2018-08-17T01:02:34.894Z,15.67
2018-08-17T01:05:03.451Z,16.37
2018-08-17T01:07:31.908Z,16.50
2018-08-17T01:10:00.383Z,15.60
2018-08-17T01:12:28.904Z,15.70
2018-08-17T01:14:57.427Z,14.93
2018-08-17T01:17:26.442Z,15.00
2018-08-17T01:19:54.928Z,15.17
2018-08-17T01:22:23.393Z,13.97
2018-08-17T01:24:51.913Z,14.83
2018-08-17T01:27:31.430Z,15.37
2018-08-17T01:29:59.877Z,16.57
2018-08-17T01:32:28.434Z,15.50
2018-08-17T01:34:57.610Z,17.50
2018-08-17T01:37:26.056Z,18.73
2018-08-17T01:39:54.567Z,17.43
2018-08-17T01:42:23.060Z,17.80
2018-08-17T01:44:51.523Z,18.73
2018-08-17T01:47:19.990Z,17.87
2018-08-17T01:49:48.451Z,18.93
2018-08-17T01:52:16.886Z,18.43
2018-08-17T01:54:45.370Z,19.70
2018-08-17T01:57:13.804Z,20.43
2018-08-17T01:59:42.275Z,21.87
2018-08-17T02:02:10.766Z,22.00
2018-08-17T02:04:39.212Z,23.03
2018-08-17T02:07:07.748Z,24.57
2018-08-17T02:09:36.603Z,23.47
2018-08-17T02:12:05.055Z,22.87
2018-08-17T02:14:33.544Z,32.40
2018-08-17T02:17:02.239Z,23.23
2018-08-17T02:19:30.703Z,23.20
2018-08-17T02:21:59.168Z,23.93
2018-08-17T02:24:27.694Z,26.00
2018-08-17T02:26:56.318Z,23.40
2018-08-17T02:29:24.793Z,24.47
2018-08-17T02:31:53.627Z,23.17
2018-08-17T02:34:22.098Z,23.57
2018-08-17T02:36:50.560Z,25.37
2018-08-17T02:39:19.073Z,22.67
2018-08-17T02:41:47.550Z,24.83
2018-08-17T02:44:16.042Z,23.30
2018-08-17T02:46:44.549Z,23.80
2018-08-17T02:49:13.028Z,24.50
2018-08-17T02:51:41.502Z,24.00
2018-08-17T02:54:10.088Z,24.43
2018-08-17T02:56:38.549Z,22.83
2018-08-17T02:59:07.243Z,23.60
2018-08-17T03:01:36.051Z,23.07
2018-08-17T03:04:05.256Z,21.47
2018-08-17T03:06:33.700Z,23.23
2018-08-17T03:09:02.159Z,23.20
2018-08-17T03:11:30.653Z,21.33
2018-08-17T03:13:59.100Z,22.23
2018-08-17T03:16:27.559Z,21.47
2018-08-17T03:18:55.991Z,21.27
2018-08-17T03:21:24.454Z,20.87
2018-08-17T03:23:52.885Z,19.97
2018-08-17T03:26:21.335Z,19.33
2018-08-17T03:28:49.770Z,18.40
2018-08-17T03:31:18.231Z,18.87
2018-08-17T03:33:46.670Z,19.27
2018-08-17T03:36:15.155Z,16.63
2018-08-17T03:38:43.998Z,16.47
2018-08-17T03:41:12.450Z,16.70
2018-08-17T03:43:40.884Z,16.30
2018-08-17T03:46:09.359Z,20.27
2018-08-17T03:48:37.811Z,15.07
2018-08-17T03:51:06.638Z,15.50
2018-08-17T03:53:35.123Z,14.63
2018-08-17T03:56:03.634Z,14.30
2018-08-17T03:58:32.085Z,14.67
2018-08-17T04:01:00.581Z,14.27
2018-08-17T04:03:29.042Z,14.30
2018-08-17T04:05:57.495Z,17.57
2018-08-17T04:08:25.990Z,14.37
2018-08-17T04:10:54.475Z,13.37
2018-08-17T04:13:22.944Z,13.17
2018-08-17T04:15:51.448Z,14.20
2018-08-17T04:18:19.929Z,12.17
2018-08-17T04:20:48.412Z,12.27
2018-08-17T04:23:16.850Z,12.77
2018-08-17T04:25:45.333Z,13.73
2018-08-17T04:28:13.757Z,12.90
2018-08-17T04:30:42.227Z,14.93
2018-08-17T04:33:10.810Z,14.20
2018-08-17T04:35:39.311Z,14.00
2018-08-17T04:38:08.123Z,13.33
2018-08-17T04:40:36.593Z,16.50
2018-08-17T04:43:05.088Z,13.10
2018-08-17T04:45:33.574Z,13.43
2018-08-17T04:48:02.083Z,14.13
2018-08-17T04:50:30.605Z,14.97
2018-08-17T04:52:59.090Z,14.33
2018-08-17T04:55:27.811Z,14.80
2018-08-17T04:57:56.243Z,17.20
2018-08-17T05:00:24.720Z,14.07
2018-08-17T05:02:53.210Z,14.70
2018-08-17T05:05:21.654Z,15.23
2018-08-17T05:07:50.131Z,15.60
2018-08-17T05:10:18.599Z,14.23
2018-08-17T05:12:47.039Z,15.03
2018-08-17T05:15:15.501Z,14.67
2018-08-17T05:17:43.965Z,12.50
2018-08-17T05:20:12.434Z,12.30
2018-08-17T05:22:40.888Z,15.37
2018-08-17T05:25:09.453Z,11.70
2018-08-17T05:27:38.281Z,11.87
2018-08-17T05:30:06.788Z,11.77
2018-08-17T05:32:35.565Z,11.60
2018-08-17T05:35:04.093Z,13.27
2018-08-17T05:37:32.575Z,12.27
2018-08-17T05:40:01.015Z,12.10
2018-08-17T05:42:29.495Z,12.93
2018-08-17T05:44:58.590Z,12.87
2018-08-17T05:47:28.367Z,12.07
2018-08-17T05:49:57.036Z,12.23
2018-08-17T05:52:26.060Z,13.07
2018-08-17T05:54:54.951Z,11.67
2018-08-17T05:57:23.422Z,12.03
2018-08-17T05:59:53.127Z,13.20
2018-08-17T06:02:22.194Z,19.20
2018-08-17T06:04:53.139Z,13.13
2018-08-17T06:07:21.822Z,11.47
2018-08-17T06:09:50.725Z,12.53
2018-08-17T06:12:19.298Z,12.53
2018-08-17T06:14:47.740Z,12.77
2018-08-17T06:17:16.241Z,16.37
2018-08-17T06:19:44.696Z,11.73
2018-08-17T06:22:17.367Z,11.27
2018-08-17T06:24:46.074Z,14.10
2018-08-17T06:27:14.895Z,14.90
2018-08-17T06:29:43.531Z,12.90
2018-08-17T06:32:12.410Z,12.17
2018-08-17T06:34:41.079Z,13.53
2018-08-17T06:37:10.170Z,13.13
2018-08-17T06:39:38.788Z,13.67
2018-08-17T06:42:07.272Z,15.60
2018-08-17T06:44:35.714Z,16.70
2018-08-17T06:47:04.791Z,15.43
2018-08-17T06:49:33.243Z,15.23
2018-08-17T06:52:01.730Z,16.07
2018-08-17T06:54:30.175Z,16.03
2018-08-17T06:56:58.738Z,18.13
2018-08-17T06:59:27.699Z,22.00
2018-08-17T07:01:56.152Z,18.50
2018-08-17T07:04:24.616Z,18.77
2018-08-17T07:06:53.100Z,16.07
2018-08-17T07:09:21.682Z,15.90
2018-08-17T07:11:50.272Z,14.97
2018-08-17T07:14:18.715Z,17.43
2018-08-17T07:16:47.566Z,18.30
2018-08-17T07:19:16.183Z,15.37
2018-08-17T07:21:44.681Z,19.40
2018-08-17T07:24:13.304Z,17.73
2018-08-17T07:26:41.735Z,20.53
2018-08-17T07:29:10.208Z,15.97
2018-08-17T07:31:38.699Z,16.30
2018-08-17T07:34:07.199Z,15.43
2018-08-17T07:36:35.682Z,21.70
2018-08-17T07:39:06.180Z,30.70
2018-08-17T07:41:34.640Z,17.37
2018-08-17T07:44:03.497Z,16.00
2018-08-17T07:46:31.915Z,14.63
2018-08-17T07:51:34.294Z,12.37
2018-08-17T07:54:03.463Z,14.07
2018-08-17T07:56:31.943Z,13.40
2018-08-17T07:59:00.445Z,13.60
2018-08-17T08:01:29.058Z,13.50
2018-08-17T08:03:57.978Z,15.30
2018-08-17T08:06:26.462Z,15.57
2018-08-17T08:08:55.858Z,18.23
2018-08-17T08:11:24.327Z,15.27
2018-08-17T08:13:52.801Z,14.27
2018-08-17T08:16:21.295Z,10.80
2018-08-17T08:18:49.780Z,14.77
2018-08-17T08:21:18.288Z,14.07
2018-08-17T08:23:46.796Z,14.33
2018-08-17T08:26:15.627Z,12.97
2018-08-17T08:28:44.119Z,11.23
2018-08-17T08:31:12.942Z,13.53
2018-08-17T08:33:41.456Z,12.57
2018-08-17T08:36:09.911Z,12.17
2018-08-17T08:38:38.367Z,12.47
2018-08-17T08:41:06.883Z,11.93
2018-08-17T08:43:35.352Z,10.70
2018-08-17T08:46:03.885Z,8.83
2018-08-17T08:48:32.529Z,10.90
2018-08-17T08:51:01.066Z,8.70
2018-08-17T08:53:29.534Z,8.47
2018-08-17T08:55:58.029Z,6.17
2018-08-17T08:58:26.646Z,6.40
2018-08-17T09:00:55.090Z,6.83
2018-08-17T09:03:23.548Z,5.97
2018-08-17T09:05:52.012Z,6.67
2018-08-17T09:08:20.591Z,6.20
2018-08-17T09:10:49.094Z,6.00
2018-08-17T09:13:17.608Z,6.23
2018-08-17T09:15:46.526Z,6.10
2018-08-17T09:18:15.001Z,5.07
2018-08-17T09:20:43.533Z,4.73
2018-08-17T09:23:12.116Z,6.13
2018-08-17T09:25:40.560Z,7.73
2018-08-17T09:28:09.053Z,9.23
2018-08-17T09:30:37.490Z,10.27
2018-08-17T09:33:06.430Z,10.03
2018-08-17T09:35:34.888Z,9.30
2018-08-17T09:38:03.327Z,8.73
2018-08-17T09:40:31.831Z,9.00
2018-08-17T09:43:00.278Z,9.00
2018-08-17T09:45:28.769Z,9.20
2018-08-17T09:47:57.243Z,8.87
2018-08-17T09:50:25.684Z,8.93
2018-08-17T09:52:54.151Z,10.03
2018-08-17T09:55:22.688Z,8.10
2018-08-17T09:57:51.141Z,7.37
2018-08-17T10:00:19.647Z,8.53
2018-08-17T10:02:53.363Z,7.67
2018-08-17T10:05:27.036Z,7.40
2018-08-17T10:08:00.831Z,7.63
2018-08-17T10:10:29.515Z,7.47
2018-08-17T10:12:58.318Z,7.33
2018-08-17T10:15:26.810Z,7.57
2018-08-17T10:17:55.265Z,7.20
2018-08-17T10:20:24.274Z,6.87
2018-08-17T10:22:52.722Z,6.03
2018-08-17T10:25:25.134Z,5.30
2018-08-17T10:27:56.250Z,5.20
2018-08-17T10:30:25.502Z,5.63
2018-08-17T10:33:00.999Z,5.43
2018-08-17T10:35:30.674Z,6.43
2018-08-17T10:38:03.882Z,4.73
2018-08-17T10:40:32.859Z,6.30
2018-08-17T10:43:02.636Z,4.90
2018-08-17T10:45:31.286Z,4.70
2018-08-17T10:47:59.827Z,4.37
2018-08-17T10:50:30.687Z,4.57
2018-08-17T10:53:00.330Z,3.97
2018-08-17T10:55:47.136Z,3.67
2018-08-17T10:58:16.787Z,5.00
2018-08-17T11:00:46.477Z,4.20
2018-08-17T11:03:14.978Z,3.90
2018-08-17T11:05:43.450Z,4.03
2018-08-17T11:08:11.868Z,7.23
2018-08-17T11:10:40.351Z,4.63
2018-08-17T11:13:08.819Z,3.70
2018-08-17T11:15:37.272Z,4.97
2018-08-17T11:18:05.758Z,4.40
2018-08-17T11:20:34.584Z,4.27
2018-08-17T11:23:03.418Z,4.00
2018-08-17T11:25:31.899Z,3.63
2018-08-17T11:28:00.327Z,4.03
2018-08-17T11:30:28.790Z,3.43
2018-08-17T11:32:57.275Z,4.17
2018-08-17T11:35:25.752Z,4.50
2018-08-17T11:37:54.182Z,5.50
2018-08-17T11:40:22.647Z,3.90
2018-08-17T11:42:51.447Z,4.63
2018-08-17T11:45:22.054Z,3.80
2018-08-17T11:47:50.955Z,4.13
2018-08-17T11:50:20.840Z,3.57
2018-08-17T11:53:03.343Z,4.07
2018-08-17T11:55:32.914Z,4.93
2018-08-17T11:58:01.342Z,4.53
2018-08-17T12:00:36.329Z,4.47
2018-08-17T12:03:06.278Z,4.17
2018-08-17T12:05:35.103Z,4.80
2018-08-17T12:08:03.604Z,5.10
2018-08-17T12:10:32.879Z,5.33
2018-08-17T12:13:06.920Z,5.67
2018-08-17T12:15:48.980Z,5.73
2018-08-17T12:18:17.403Z,6.30
2018-08-17T12:20:46.769Z,6.53
2018-08-17T12:23:15.540Z,7.53
2018-08-17T12:25:49.192Z,7.13
2018-08-17T12:28:17.643Z,6.13
2018-08-17T12:30:46.998Z,5.83
2018-08-17T12:33:15.415Z,6.37
2018-08-17T12:35:43.862Z,5.97
2018-08-17T12:38:12.403Z,6.07
2018-08-17T12:40:45.751Z,5.90
2018-08-17T12:43:15.519Z,5.63
2018-08-17T12:45:44.065Z,4.63
2018-08-17T12:48:13.438Z,5.30
2018-08-17T12:50:42.270Z,5.23
2018-08-17T12:53:10.775Z,6.37
2018-08-17T12:55:39.238Z,6.57
2018-08-17T12:58:07.867Z,9.47
2018-08-17T13:00:36.512Z,6.50
2018-08-17T13:03:05.275Z,7.73
2018-08-17T13:05:33.721Z,7.50
2018-08-17T13:08:02.211Z,7.97
2018-08-17T13:10:31.003Z,6.67
2018-08-17T13:13:04.693Z,9.43
2018-08-17T13:15:33.163Z,6.50
2018-08-17T13:18:11.446Z,8.93
2018-08-17T13:20:40.006Z,8.67
2018-08-17T13:23:09.169Z,9.53
2018-08-17T13:25:37.823Z,8.77
2018-08-17T13:28:06.317Z,8.67
2018-08-17T13:30:34.784Z,9.53
2018-08-17T13:33:03.602Z,9.27
2018-08-17T13:35:32.048Z,7.37
2018-08-17T13:38:00.502Z,8.13
2018-08-17T13:40:28.956Z,9.47
2018-08-17T13:42:57.426Z,11.60
2018-08-17T13:45:25.935Z,8.70
2018-08-17T13:47:54.433Z,8.97
2018-08-17T13:50:22.925Z,10.93
2018-08-17T13:52:51.385Z,10.70
2018-08-17T13:55:19.872Z,10.77
2018-08-17T13:57:48.526Z,8.40
2018-08-17T14:00:17.228Z,9.47
2018-08-17T14:02:45.721Z,5.47
2018-08-17T14:05:14.202Z,9.73
2018-08-17T14:07:42.952Z,6.30
2018-08-17T14:10:11.949Z,7.07
2018-08-17T14:12:40.574Z,5.67
2018-08-17T14:15:09.898Z,5.83
2018-08-17T14:17:39.484Z,6.20
2018-08-17T14:20:12.608Z,4.10
2018-08-17T14:22:41.492Z,7.50
2018-08-17T14:25:10.602Z,7.60
2018-08-17T14:27:39.069Z,5.03
2018-08-17T14:30:16.242Z,7.77
2018-08-17T14:32:44.960Z,6.03
2018-08-17T14:35:15.708Z,5.50
2018-08-17T14:37:44.761Z,6.13
2018-08-17T14:40:13.812Z,5.80
2018-08-17T14:42:42.432Z,7.03
2018-08-17T14:45:11.263Z,6.67
2018-08-17T14:47:39.795Z,7.93
2018-08-17T14:50:11.651Z,6.77
2018-08-17T14:52:40.176Z,11.33
2018-08-17T14:55:08.967Z,7.33
2018-08-17T14:57:37.479Z,6.43
2018-08-17T15:00:11.198Z,8.13
2018-08-17T15:02:40.052Z,6.20
2018-08-17T15:05:09.959Z,6.97
2018-08-17T15:07:38.503Z,9.43
2018-08-17T15:10:08.107Z,5.73
2018-08-17T15:12:36.551Z,7.53
2018-08-17T15:15:05.243Z,6.40
2018-08-17T15:17:33.688Z,4.80
2018-08-17T15:20:02.500Z,9.07
2018-08-17T15:22:31.007Z,7.37
2018-08-17T15:24:59.443Z,5.80
2018-08-17T15:27:27.904Z,6.40
2018-08-17T15:29:56.370Z,4.33
2018-08-17T15:32:24.890Z,5.57
2018-08-17T15:34:53.331Z,10.07
2018-08-17T15:37:21.818Z,6.73
2018-08-17T15:39:50.274Z,7.37
2018-08-17T15:42:18.746Z,5.97
2018-08-17T15:44:47.203Z,5.97
2018-08-17T15:47:15.638Z,7.97
2018-08-17T15:50:25.120Z,7.57
2018-08-17T15:52:53.602Z,10.00
2018-08-17T15:55:22.068Z,11.90
2018-08-17T15:57:50.688Z,4.97
2018-08-17T16:00:20.210Z,3.40
2018-08-17T16:02:48.737Z,6.77
2018-08-17T16:05:17.572Z,4.77
2018-08-17T16:07:46.044Z,8.90
2018-08-17T16:10:15.706Z,5.90
2018-08-17T16:12:45.003Z,5.37
2018-08-17T16:15:13.467Z,6.20
2018-08-17T16:17:41.946Z,6.30
2018-08-17T16:20:11.753Z,5.00
2018-08-17T16:22:40.979Z,13.93
2018-08-17T16:25:10.140Z,10.00
2018-08-17T16:27:39.010Z,9.00
2018-08-17T16:30:09.375Z,10.30
2018-08-17T16:32:37.821Z,4.50
2018-08-17T16:35:06.358Z,7.37
2018-08-17T16:37:35.006Z,15.10
2018-08-17T16:40:05.011Z,6.20
2018-08-17T16:47:21.524Z,44.20
2018-08-17T16:49:50.080Z,14.07
2018-08-17T16:52:18.536Z,6.70
2018-08-17T16:54:47.011Z,3.90
2018-08-17T16:57:15.482Z,4.60
2018-08-17T16:59:44.584Z,5.27
2018-08-17T17:02:13.383Z,5.70
2018-08-17T17:04:43.043Z,4.77
2018-08-17T17:07:11.607Z,5.93
2018-08-17T17:09:40.130Z,13.73
2018-08-17T17:12:16.867Z,8.70
2018-08-17T17:14:45.838Z,10.97
2018-08-17T17:17:14.461Z,5.83
2018-08-17T17:19:42.942Z,7.90
2018-08-17T17:22:11.784Z,7.40
2018-08-17T17:24:40.297Z,8.13
2018-08-17T17:27:09.563Z,5.67
2018-08-17T17:29:38.525Z,4.93
2018-08-17T17:32:07.506Z,6.00
2018-08-17T17:34:36.008Z,4.70
2018-08-17T17:37:04.650Z,6.53
2018-08-17T17:39:33.103Z,6.17
2018-08-17T17:42:01.550Z,7.67
2018-08-17T17:44:30.019Z,6.53
2018-08-17T17:46:59.151Z,5.80
2018-08-17T17:49:27.619Z,9.90
2018-08-17T17:51:56.114Z,6.97
2018-08-17T17:54:25.676Z,8.90
2018-08-17T17:57:01.427Z,7.63
2018-08-17T17:59:29.890Z,6.27
2018-08-17T18:01:58.394Z,4.27
2018-08-17T18:04:30.921Z,5.63
2018-08-17T18:07:00.383Z,5.47
2018-08-17T18:09:28.921Z,7.13
2018-08-17T18:11:57.394Z,4.37
2018-08-17T18:14:25.903Z,6.57
2018-08-17T18:24:13.065Z,6.90
2018-08-17T18:26:46.259Z,5.13
2018-08-17T18:29:14.893Z,6.10
2018-08-17T18:31:44.693Z,5.97
2018-08-17T18:34:13.788Z,10.27
2018-08-17T18:36:42.859Z,4.33
2018-08-17T18:39:18.180Z,4.80
2018-08-17T18:41:46.926Z,4.67
2018-08-17T18:44:15.404Z,6.63
2018-08-17T18:46:43.996Z,5.80
2018-08-17T18:49:12.585Z,6.30
2018-08-17T18:51:41.592Z,5.50
2018-08-17T18:54:10.027Z,5.70
2018-08-17T18:56:38.502Z,5.20
2018-08-17T18:59:07.331Z,4.00
2018-08-17T19:01:35.939Z,7.60
2018-08-17T19:04:04.430Z,6.30
2018-08-17T19:06:32.902Z,5.60
2018-08-17T19:09:01.394Z,5.00
2018-08-17T19:11:29.847Z,5.97
2018-08-17T19:13:58.266Z,8.53
2018-08-17T19:16:26.748Z,9.77
2018-08-17T19:18:55.191Z,7.83
2018-08-17T19:21:23.651Z,8.13
2018-08-17T19:23:52.095Z,7.50
2018-08-17T19:26:20.622Z,11.20
2018-08-17T19:28:51.725Z,8.23
2018-08-17T19:31:20.204Z,4.87
2018-08-17T19:33:48.696Z,8.03
2018-08-17T19:36:17.227Z,10.93
2018-08-17T19:38:45.669Z,4.90
2018-08-17T19:41:14.174Z,8.23
2018-08-17T19:43:42.624Z,6.83
2018-08-17T19:46:11.133Z,7.43
2018-08-17T19:48:39.743Z,10.53
2018-08-17T19:51:13.399Z,6.60
2018-08-17T19:53:41.827Z,7.10
2018-08-17T19:56:10.394Z,3.37
2018-08-17T19:58:38.899Z,5.43
2018-08-17T20:01:07.875Z,7.43
2018-08-17T20:03:36.310Z,5.80
2018-08-17T20:06:04.818Z,7.37
2018-08-17T20:08:35.791Z,6.13
2018-08-17T20:11:04.309Z,8.00
2018-08-17T20:13:33.410Z,13.67
2018-08-17T20:16:01.974Z,10.57
2018-08-17T20:18:30.421Z,13.67
2018-08-17T20:20:58.887Z,11.03
2018-08-17T20:23:27.334Z,6.33
2018-08-17T20:25:55.939Z,8.73
2018-08-17T20:28:24.592Z,7.80
2018-08-17T20:30:53.055Z,6.73
2018-08-17T20:33:26.596Z,6.87
2018-08-17T20:35:55.251Z,5.73
2018-08-17T20:38:23.819Z,7.57
2018-08-17T20:40:55.032Z,6.80
2018-08-17T20:43:24.134Z,8.97
2018-08-17T20:45:52.586Z,9.70
2018-08-17T20:48:21.079Z,7.83
2018-08-17T20:50:49.911Z,9.50
2018-08-17T20:53:20.485Z,11.17
2018-08-17T20:55:48.967Z,7.23
2018-08-17T20:58:17.551Z,6.20
2018-08-17T21:00:46.035Z,7.27
2018-08-17T21:03:14.458Z,8.47
2018-08-17T21:05:42.915Z,5.90
2018-08-17T21:08:11.378Z,7.60
2018-08-17T21:10:39.859Z,6.60
2018-08-17T21:13:08.371Z,8.77
2018-08-17T21:16:39.415Z,10.17
2018-08-17T21:19:07.903Z,7.87
2018-08-17T21:21:36.402Z,6.70
2018-08-17T21:24:05.367Z,10.37
2018-08-17T21:26:33.895Z,8.33
2018-08-17T21:29:03.441Z,6.27
2018-08-17T21:31:32.107Z,7.23
2018-08-17T21:34:00.554Z,9.43
2018-08-17T21:36:29.015Z,6.50
2018-08-17T21:39:15.194Z,8.17
2018-08-17T21:41:46.247Z,7.63
2018-08-17T21:44:16.194Z,5.73
2018-08-17T21:47:05.702Z,7.37
2018-08-17T21:49:35.102Z,7.37
2018-08-17T21:52:09.159Z,6.33
2018-08-17T21:54:37.590Z,9.73
2018-08-17T21:57:06.402Z,6.73
2018-08-17T21:59:40.076Z,12.23
2018-08-17T22:02:10.887Z,7.97
2018-08-17T22:04:39.503Z,6.53
2018-08-17T22:07:10.875Z,7.30
2018-08-17T22:09:42.008Z,9.13
2018-08-17T22:12:12.112Z,9.30
2018-08-17T22:14:40.566Z,10.93
2018-08-17T22:17:20.171Z,6.97
2018-08-17T22:19:48.631Z,5.97
2018-08-17T22:22:17.699Z,8.40
2018-08-17T22:24:50.515Z,5.13
2018-08-17T22:27:19.950Z,5.23
2018-08-17T22:29:49.897Z,10.73
2018-08-17T22:32:19.807Z,8.23
2018-08-17T22:34:48.871Z,7.70
2018-08-17T22:37:17.603Z,6.23
2018-08-17T22:39:46.279Z,5.90
2018-08-17T22:42:17.436Z,4.80
2018-08-17T22:44:46.172Z,7.20
2018-08-17T22:47:22.796Z,6.50
2018-08-17T22:49:52.092Z,9.17
2018-08-17T22:52:21.766Z,9.67
2018-08-17T22:54:58.707Z,9.53
2018-08-17T22:57:27.911Z,9.73
2018-08-17T23:00:11.382Z,6.27
2018-08-17T23:02:41.981Z,8.30
2018-08-17T23:05:11.752Z,5.10
2018-08-17T23:07:40.227Z,6.13
2018-08-17T23:10:11.567Z,8.00
2018-08-17T23:12:40.534Z,11.50
2018-08-17T23:15:10.109Z,5.63
2018-08-17T23:17:40.479Z,7.63
2018-08-17T23:20:09.202Z,8.10
2018-08-17T23:22:49.093Z,6.73
2018-08-17T23:25:17.655Z,8.90
2018-08-17T23:27:46.603Z,7.07
2018-08-17T23:30:15.043Z,6.83
2018-08-17T23:32:44.754Z,9.17
2018-08-17T23:35:13.203Z,8.30
2018-08-17T23:37:41.993Z,6.77
2018-08-17T23:40:11.023Z,5.57
2018-08-17T23:42:39.555Z,5.67
2018-08-17T23:45:10.634Z,13.90
2018-08-17T23:47:39.630Z,6.20
2018-08-17T23:50:09.445Z,4.60
2018-08-17T23:52:38.265Z,7.10
2018-08-17T23:55:07.701Z,9.83
2018-08-17T23:57:36.377Z,5.63
